Time;durP1;ratioP1;P1;durP2;ratioP2;P2;SDS_P1;SDS_P2;PMS_P1;PMS_P2;Temp;Humidity;BMP_temperature;BMP_pressure;BME280_temperature;BME280_humidity;BME280_pressure;Samples;Min_cycle;Max_cycle;Signal;HPM_P1;HPM_P2
2022/07/07 00:02:20;;;;;;;11.20;10.02;;;16.10;99.90;;;;;;4939297;23;90259;-32
2022/07/07 00:04:46;;;;;;;17.52;10.30;;;16.10;99.90;;;;;;4922177;28;87634;-31
2022/07/07 00:07:12;;;;;;;11.10;10.07;;;16.10;99.90;;;;;;4921689;28;89521;-33
2022/07/07 00:09:38;;;;;;;15.68;11.95;;;16.10;99.90;;;;;;4921853;28;90265;-32
2022/07/07 00:12:04;;;;;;;11.68;10.48;;;16.10;99.90;;;;;;4921407;28;90941;-31
2022/07/07 00:14:30;;;;;;;12.73;9.95;;;16.20;99.90;;;;;;4921670;28;89368;-30
2022/07/07 00:16:56;;;;;;;16.10;11.43;;;16.20;99.90;;;;;;4923390;28;89409;-32
2022/07/07 00:19:23;;;;;;;13.43;10.60;;;16.20;99.90;;;;;;4921246;28;90783;-32
2022/07/07 00:21:49;;;;;;;12.80;11.45;;;16.20;99.90;;;;;;4921449;28;89822;-35
2022/07/07 00:24:14;;;;;;;13.38;11.98;;;16.20;99.90;;;;;;4921881;28;89053;-34
2022/07/07 00:26:40;;;;;;;14.35;12.82;;;16.20;99.90;;;;;;4921264;28;87619;-33
2022/07/07 00:29:06;;;;;;;14.68;11.95;;;16.20;99.90;;;;;;4920925;28;90410;-34
2022/07/07 00:31:32;;;;;;;13.68;12.27;;;16.20;99.90;;;;;;4921963;28;89762;-33
2022/07/07 00:33:58;;;;;;;12.82;11.52;;;16.20;99.90;;;;;;4921034;28;89462;-32
2022/07/07 00:36:24;;;;;;;14.70;10.98;;;16.20;99.90;;;;;;4921747;28;89024;-33
2022/07/07 00:38:49;;;;;;;17.40;12.48;;;16.20;99.90;;;;;;4920798;28;90332;-35
2022/07/07 00:41:15;;;;;;;14.95;12.38;;;16.20;99.90;;;;;;4921269;28;89680;-32
2022/07/07 00:43:43;;;;;;;14.02;12.48;;;16.20;99.90;;;;;;4920881;28;89937;-32
2022/07/07 00:46:10;;;;;;;11.67;10.47;;;16.20;99.90;;;;;;4921009;28;88207;-31
2022/07/07 00:48:37;;;;;;;13.85;11.93;;;16.20;99.90;;;;;;4921495;28;90307;-34
2022/07/07 00:51:09;;;;;;;14.15;11.60;;;16.30;99.90;;;;;;4921199;28;89935;-34
2022/07/07 00:53:35;;;;;;;13.98;12.55;;;16.30;99.90;;;;;;4921300;28;89663;-33
2022/07/07 00:56:01;;;;;;;13.80;11.75;;;16.20;99.90;;;;;;4921684;28;88256;-30
2022/07/07 00:58:26;;;;;;;13.20;11.90;;;16.30;99.90;;;;;;4920794;28;90488;-32
2022/07/07 01:00:52;;;;;;;15.75;11.57;;;16.30;99.90;;;;;;4921122;28;89791;-32
2022/07/07 01:03:18;;;;;;;12.35;11.05;;;16.30;99.90;;;;;;4919973;28;88915;-31
2022/07/07 01:05:47;;;;;;;11.98;10.75;;;16.30;99.90;;;;;;4921654;28;88845;-36
2022/07/07 01:08:15;;;;;;;12.93;10.23;;;16.30;99.90;;;;;;4919803;28;90715;-34
2022/07/07 01:10:41;;;;;;;13.95;11.02;;;16.20;99.90;;;;;;4921355;28;89910;-33
2022/07/07 01:13:07;;;;;;;12.20;9.80;;;16.30;99.90;;;;;;4920891;28;88715;-33
2022/07/07 01:15:33;;;;;;;11.88;10.13;;;16.30;99.90;;;;;;4922363;28;89100;-35
2022/07/07 01:17:59;;;;;;;14.98;12.52;;;16.20;99.90;;;;;;4920839;28;91135;-32
2022/07/07 01:20:25;;;;;;;10.35;9.27;;;16.30;99.90;;;;;;4920640;28;89880;-31
2022/07/07 01:22:55;;;;;;;16.20;10.80;;;16.30;99.90;;;;;;4922165;28;89980;-34
2022/07/07 01:25:21;;;;;;;13.32;9.95;;;16.30;99.90;;;;;;4920511;28;88208;-32
2022/07/07 01:27:49;;;;;;;12.85;11.07;;;16.30;99.90;;;;;;4921455;28;92387;-32
2022/07/07 01:30:16;;;;;;;10.18;9.18;;;16.20;99.90;;;;;;4919973;28;89609;-33
2022/07/07 01:32:41;;;;;;;10.30;9.27;;;16.20;99.90;;;;;;4921450;28;89030;-34
2022/07/07 01:35:09;;;;;;;12.93;11.02;;;16.20;99.90;;;;;;4921662;28;88276;-32
2022/07/07 01:37:35;;;;;;;12.60;10.18;;;16.20;99.90;;;;;;4920217;28;90559;-31
2022/07/07 01:40:02;;;;;;;12.15;10.15;;;16.30;99.90;;;;;;4919868;28;89374;-33
2022/07/07 01:42:27;;;;;;;11.68;10.48;;;16.30;99.90;;;;;;4920812;28;87732;-32
2022/07/07 01:44:53;;;;;;;10.43;8.65;;;16.20;99.90;;;;;;4919999;28;88246;-33
2022/07/07 01:47:20;;;;;;;14.13;10.55;;;16.20;99.90;;;;;;4921302;28;89475;-33
2022/07/07 01:49:46;;;;;;;14.50;10.70;;;16.30;99.90;;;;;;4920529;28;90445;-31
2022/07/07 01:52:13;;;;;;;16.05;11.45;;;16.30;99.90;;;;;;4919816;28;89554;-33
2022/07/07 01:54:39;;;;;;;15.05;11.73;;;16.20;99.90;;;;;;4920965;28;89422;-32
2022/07/07 01:57:06;;;;;;;14.45;11.32;;;16.30;99.90;;;;;;4922491;28;90418;-35
2022/07/07 01:59:33;;;;;;;15.27;10.30;;;16.30;99.90;;;;;;4922658;28;89557;-34
2022/07/07 02:01:58;;;;;;;10.80;9.77;;;16.20;99.90;;;;;;4923679;28;90243;-33
2022/07/07 02:04:24;;;;;;;13.05;9.77;;;16.20;99.90;;;;;;4924181;28;88688;-31
2022/07/07 02:06:50;;;;;;;10.27;7.47;;;16.20;99.90;;;;;;4924540;28;90261;-31
2022/07/07 02:09:16;;;;;;;10.70;7.55;;;16.30;99.90;;;;;;4924473;28;90078;-31
2022/07/07 02:11:42;;;;;;;7.10;6.45;;;16.30;99.90;;;;;;4924517;28;87963;-32
2022/07/07 02:14:07;;;;;;;7.00;6.03;;;16.20;99.90;;;;;;4924614;28;89601;-32
2022/07/07 02:16:33;;;;;;;7.10;6.30;;;16.20;99.90;;;;;;4923876;28;90407;-30
2022/07/07 02:19:01;;;;;;;7.43;6.63;;;16.20;99.90;;;;;;4924074;28;89963;-31
2022/07/07 02:21:26;;;;;;;7.35;6.60;;;16.10;99.90;;;;;;4925053;28;88219;-33
2022/07/07 02:23:54;;;;;;;6.85;6.10;;;16.10;99.90;;;;;;4925345;28;89675;-32
2022/07/07 02:26:20;;;;;;;6.73;5.80;;;16.10;99.90;;;;;;4923458;28;89304;-33
2022/07/07 02:28:46;;;;;;;5.75;5.22;;;16.10;99.90;;;;;;4924629;28;89666;-32
2022/07/07 02:31:12;;;;;;;5.53;5.03;;;16.10;99.90;;;;;;4923621;28;88972;-32
2022/07/07 02:33:38;;;;;;;8.38;4.43;;;16.10;99.90;;;;;;4924822;28;88341;-33
2022/07/07 02:36:05;;;;;;;6.80;5.57;;;16.00;99.90;;;;;;4924051;28;90155;-32
2022/07/07 02:38:31;;;;;;;5.95;4.93;;;16.10;99.90;;;;;;4923998;28;89479;-31
2022/07/07 02:40:56;;;;;;;4.78;4.38;;;16.10;99.90;;;;;;4923083;28;87629;-32
2022/07/07 02:43:23;;;;;;;7.13;4.97;;;16.10;99.90;;;;;;4923786;28;87658;-31
2022/07/07 02:45:49;;;;;;;5.30;4.80;;;16.10;99.90;;;;;;4923750;28;90104;-35
2022/07/07 02:48:17;;;;;;;5.05;4.60;;;16.00;99.90;;;;;;4924756;28;89757;-32
2022/07/07 02:50:43;;;;;;;6.22;4.78;;;16.00;99.90;;;;;;4924296;28;89155;-33
2022/07/07 02:53:10;;;;;;;4.13;3.72;;;16.00;99.90;;;;;;4923626;28;88744;-31
2022/07/07 02:55:36;;;;;;;4.72;4.32;;;16.00;99.90;;;;;;4924059;28;90564;-33
2022/07/07 02:58:04;;;;;;;6.10;3.97;;;16.00;99.90;;;;;;4923576;28;90721;-29
2022/07/07 03:00:33;;;;;;;4.17;3.80;;;16.00;99.90;;;;;;4923568;28;89632;-31
2022/07/07 03:03:03;;;;;;;5.57;3.60;;;16.00;99.90;;;;;;4923276;28;89737;-34
2022/07/07 03:05:29;;;;;;;5.75;3.72;;;16.00;99.90;;;;;;4923175;28;90302;-34
2022/07/07 03:07:54;;;;;;;5.07;3.88;;;16.00;99.90;;;;;;4923184;28;89922;-30
2022/07/07 03:10:21;;;;;;;8.38;3.95;;;16.00;99.90;;;;;;4923603;28;88987;-33
2022/07/07 03:12:46;;;;;;;5.32;3.53;;;16.00;99.90;;;;;;4924131;28;88259;-32
2022/07/07 03:15:13;;;;;;;6.40;4.43;;;16.00;99.90;;;;;;4922574;28;90232;-32
2022/07/07 03:17:43;;;;;;;4.82;4.15;;;16.00;99.90;;;;;;4923140;28;91082;-33
2022/07/07 03:20:11;;;;;;;4.50;4.20;;;16.00;99.90;;;;;;4923070;28;88252;-33
2022/07/07 03:22:40;;;;;;;7.53;4.73;;;16.00;99.90;;;;;;4923899;28;88657;-33
2022/07/07 03:25:07;;;;;;;4.97;4.53;;;16.00;99.90;;;;;;4922874;28;90094;-32
2022/07/07 03:27:33;;;;;;;6.93;4.35;;;16.00;99.90;;;;;;4923227;28;90618;-35
2022/07/07 03:29:59;;;;;;;4.45;3.55;;;16.00;99.90;;;;;;4922680;28;88964;-32
2022/07/07 03:32:25;;;;;;;15.60;4.75;;;16.00;99.90;;;;;;4922726;28;87959;-32
2022/07/07 03:34:51;;;;;;;6.53;4.53;;;16.00;99.90;;;;;;4923688;28;89284;-30
2022/07/07 03:37:16;;;;;;;10.23;4.57;;;16.00;99.90;;;;;;4922505;28;89553;-34
2022/07/07 03:39:42;;;;;;;5.65;4.00;;;16.00;99.90;;;;;;4923261;28;87552;-32
2022/07/07 03:42:08;;;;;;;5.18;3.90;;;16.00;99.90;;;;;;4922944;28;89973;-31
2022/07/07 03:44:34;;;;;;;4.15;3.78;;;16.00;99.90;;;;;;4922669;28;90453;-33
2022/07/07 03:46:59;;;;;;;5.72;4.28;;;16.00;99.90;;;;;;4923298;28;90046;-32
2022/07/07 03:49:25;;;;;;;7.85;5.38;;;16.00;99.90;;;;;;4923049;28;89176;-32
2022/07/07 03:51:50;;;;;;;4.93;4.07;;;16.00;99.90;;;;;;4923480;28;89083;-33
2022/07/07 03:54:16;;;;;;;5.78;4.07;;;16.00;99.90;;;;;;4921978;28;90189;-34
2022/07/07 03:56:42;;;;;;;3.75;3.45;;;16.00;99.90;;;;;;4922751;28;88834;-32
2022/07/07 03:59:08;;;;;;;9.07;5.18;;;15.90;99.90;;;;;;4923252;28;87585;-34
2022/07/07 04:01:34;;;;;;;9.95;4.90;;;15.90;99.90;;;;;;4922912;28;90160;-31
2022/07/07 04:03:59;;;;;;;7.82;3.95;;;15.90;99.90;;;;;;4922354;28;90901;-31
2022/07/07 04:06:25;;;;;;;4.88;4.28;;;15.90;99.90;;;;;;4920832;28;89764;-32
2022/07/07 04:08:50;;;;;;;7.65;4.32;;;15.90;99.90;;;;;;4922943;28;88190;-31
2022/07/07 04:11:19;;;;;;;6.45;4.20;;;16.00;99.90;;;;;;4921692;28;89759;-33
2022/07/07 04:13:44;;;;;;;6.38;4.38;;;15.90;99.90;;;;;;4922925;28;90451;-34
2022/07/07 04:16:10;;;;;;;13.05;4.18;;;15.90;99.90;;;;;;4921972;28;89339;-35
2022/07/07 04:18:35;;;;;;;10.05;3.92;;;16.00;99.90;;;;;;4921020;28;89586;-32
2022/07/07 04:21:01;;;;;;;6.68;3.25;;;15.90;99.90;;;;;;4922030;28;89766;-34
2022/07/07 04:23:27;;;;;;;7.18;2.72;;;15.90;99.90;;;;;;4922971;28;89273;-32
2022/07/07 04:25:53;;;;;;;3.15;2.33;;;15.90;99.90;;;;;;4922181;28;88767;-31
2022/07/07 04:28:19;;;;;;;5.65;2.42;;;15.90;99.90;;;;;;4921902;28;88628;-33
2022/07/07 04:30:45;;;;;;;4.78;2.00;;;15.90;99.90;;;;;;4922081;28;89283;-32
2022/07/07 04:33:11;;;;;;;4.68;2.35;;;15.90;99.90;;;;;;4921491;28;90726;-35
2022/07/07 04:35:36;;;;;;;4.57;2.42;;;16.00;99.90;;;;;;4922560;28;88771;-33
2022/07/07 04:38:02;;;;;;;2.33;1.65;;;15.90;99.90;;;;;;4922641;28;89133;-31
2022/07/07 04:40:28;;;;;;;3.42;1.65;;;16.00;99.90;;;;;;4921737;28;87563;-32
2022/07/07 04:42:53;;;;;;;5.53;2.10;;;15.90;99.90;;;;;;4921954;28;90431;-34
2022/07/07 04:45:19;;;;;;;3.38;1.70;;;15.90;99.90;;;;;;4921382;28;90034;-32
2022/07/07 04:47:45;;;;;;;3.20;2.17;;;15.80;99.90;;;;;;4922689;28;89694;-32
2022/07/07 04:50:12;;;;;;;4.55;1.80;;;15.70;99.90;;;;;;4922137;28;88697;-32
2022/07/07 04:52:39;;;;;;;3.50;2.22;;;15.80;99.90;;;;;;4922436;28;90107;-34
2022/07/07 04:55:06;;;;;;;3.83;1.77;;;15.80;99.90;;;;;;4921885;28;89650;-34
2022/07/07 04:57:31;;;;;;;5.75;1.40;;;15.80;99.90;;;;;;4922084;28;88518;-34
2022/07/07 04:59:58;;;;;;;5.60;1.60;;;15.70;99.90;;;;;;4922636;28;89235;-37
2022/07/07 05:02:24;;;;;;;3.30;1.45;;;15.70;99.90;;;;;;4921409;28;90556;-32
2022/07/07 05:04:49;;;;;;;4.60;1.02;;;15.70;99.90;;;;;;4920970;28;90304;-33
2022/07/07 05:07:16;;;;;;;2.85;1.73;;;15.70;99.90;;;;;;4922185;28;88409;-31
2022/07/07 05:09:42;;;;;;;3.92;1.88;;;15.80;99.90;;;;;;4921459;28;91094;-32
2022/07/07 05:12:08;;;;;;;4.28;2.78;;;15.80;99.90;;;;;;4921735;28;90053;-33
2022/07/07 05:14:34;;;;;;;5.57;1.88;;;15.80;99.90;;;;;;4922039;28;90409;-32
2022/07/07 05:16:59;;;;;;;3.47;2.05;;;15.90;99.90;;;;;;4921588;28;88791;-31
2022/07/07 05:19:26;;;;;;;8.27;1.80;;;15.80;99.90;;;;;;4921741;28;88262;-31
2022/07/07 05:21:51;;;;;;;6.78;2.40;;;15.80;99.90;;;;;;4920959;28;89965;-33
2022/07/07 05:24:17;;;;;;;3.70;2.42;;;15.80;99.90;;;;;;4921745;28;89778;-32
2022/07/07 05:26:43;;;;;;;3.88;1.58;;;15.90;99.90;;;;;;4921969;28;88042;-31
2022/07/07 05:29:08;;;;;;;5.07;2.03;;;16.00;99.90;;;;;;4920677;28;88200;-33
2022/07/07 05:31:34;;;;;;;7.43;2.78;;;16.10;99.90;;;;;;4925634;28;89926;-32
2022/07/07 05:34:00;;;;;;;5.57;2.22;;;16.30;99.90;;;;;;4924469;28;89887;-34
2022/07/07 05:36:25;;;;;;;4.72;1.50;;;16.40;99.90;;;;;;4925511;28;87594;-32
2022/07/07 05:38:51;;;;;;;7.40;2.53;;;16.60;99.90;;;;;;4924598;28;87550;-32
2022/07/07 05:41:17;;;;;;;11.80;2.03;;;16.70;99.90;;;;;;4924288;28;90161;-31
2022/07/07 05:43:43;;;;;;;4.57;1.92;;;16.80;99.90;;;;;;4923745;28;90028;-31
2022/07/07 05:46:08;;;;;;;8.73;2.92;;;16.90;99.90;;;;;;4923222;28;89364;-33
2022/07/07 05:48:34;;;;;;;2.42;1.48;;;16.90;99.90;;;;;;4923844;28;89286;-34
2022/07/07 05:51:00;;;;;;;6.70;1.55;;;16.80;99.90;;;;;;4921527;28;90338;-35
2022/07/07 05:53:25;;;;;;;5.28;1.67;;;16.70;99.90;;;;;;4922589;28;89296;-34
2022/07/07 05:55:51;;;;;;;5.78;2.10;;;16.80;99.90;;;;;;4921636;28;90362;-32
2022/07/07 05:58:17;;;;;;;6.57;2.35;;;16.80;99.90;;;;;;4923104;28;89053;-34
2022/07/07 06:00:42;;;;;;;13.20;2.65;;;16.80;99.90;;;;;;4923132;28;90178;-34
2022/07/07 06:03:08;;;;;;;5.72;1.88;;;16.90;99.90;;;;;;4922199;28;90055;-34
2022/07/07 06:05:33;;;;;;;13.15;2.30;;;16.90;99.90;;;;;;4922596;28;89049;-33
2022/07/07 06:07:59;;;;;;;4.05;1.75;;;16.80;99.90;;;;;;4922280;28;89001;-35
2022/07/07 06:10:25;;;;;;;10.18;2.85;;;16.80;99.90;;;;;;4923438;28;90205;-33
2022/07/07 06:12:51;;;;;;;10.05;2.45;;;16.70;99.90;;;;;;4923295;28;91202;-31
2022/07/07 06:15:20;;;;;;;5.57;1.58;;;16.80;99.90;;;;;;4909829;28;89480;-33
2022/07/07 06:17:46;;;;;;;6.50;2.72;;;16.70;99.90;;;;;;4922367;28;88092;-31
2022/07/07 06:20:12;;;;;;;6.75;2.13;;;16.70;99.90;;;;;;4922165;28;89943;-34
2022/07/07 06:22:38;;;;;;;5.72;2.92;;;16.70;99.90;;;;;;4922972;28;89475;-35
2022/07/07 06:25:04;;;;;;;7.30;2.35;;;16.70;99.90;;;;;;4922219;28;89292;-34
2022/07/07 06:27:29;;;;;;;8.50;2.40;;;16.70;99.90;;;;;;4923198;28;88255;-32
2022/07/07 06:29:56;;;;;;;8.43;2.35;;;16.70;99.90;;;;;;4922199;28;90349;-32
2022/07/07 06:32:21;;;;;;;7.65;2.47;;;16.60;99.90;;;;;;4922904;28;89125;-29
2022/07/07 06:34:47;;;;;;;6.57;2.55;;;16.50;99.90;;;;;;4922366;28;89626;-34
2022/07/07 06:37:13;;;;;;;6.10;2.78;;;16.40;99.90;;;;;;4923039;28;88809;-34
2022/07/07 06:39:38;;;;;;;4.97;2.17;;;16.30;99.90;;;;;;4922192;28;90267;-33
2022/07/07 06:42:04;;;;;;;8.57;3.15;;;16.30;99.90;;;;;;4920851;28;91034;-33
2022/07/07 06:44:33;;;;;;;10.20;2.10;;;16.30;99.90;;;;;;4922162;28;90693;-33
2022/07/07 06:46:59;;;;;;;8.45;2.33;;;16.50;99.90;;;;;;4922749;28;89218;-30
2022/07/07 06:49:26;;;;;;;4.50;1.83;;;16.60;99.90;;;;;;4922205;28;90141;-33
2022/07/07 06:51:52;;;;;;;6.00;2.97;;;16.60;99.90;;;;;;4921693;28;89672;-35
2022/07/07 06:54:17;;;;;;;3.40;1.83;;;16.70;99.90;;;;;;4919222;28;89663;-32
2022/07/07 06:56:43;;;;;;;7.80;2.38;;;16.90;99.90;;;;;;4921824;28;88583;-32
2022/07/07 06:59:08;;;;;;;8.73;2.28;;;17.30;99.90;;;;;;4922652;28;90688;-33
2022/07/07 07:01:34;;;;;;;6.53;2.40;;;17.60;99.90;;;;;;4922442;28;89751;-31
2022/07/07 07:04:00;;;;;;;5.53;2.72;;;18.00;99.90;;;;;;4921845;28;89765;-33
2022/07/07 07:06:28;;;;;;;6.75;2.85;;;18.40;99.90;;;;;;4921128;28;88720;-33
2022/07/07 07:08:54;;;;;;;7.05;2.05;;;18.50;99.90;;;;;;4922046;28;90388;-32
2022/07/07 07:11:20;;;;;;;3.67;1.60;;;18.30;99.90;;;;;;4918586;28;90545;-32
2022/07/07 07:13:47;;;;;;;5.47;2.00;;;18.10;99.90;;;;;;4918772;28;89668;-33
2022/07/07 07:16:14;;;;;;;5.15;1.48;;;17.90;99.90;;;;;;4919680;28;89272;-33
2022/07/07 07:18:40;;;;;;;5.10;2.20;;;17.80;99.90;;;;;;4919224;28;91502;-36
2022/07/07 07:21:05;;;;;;;7.57;2.78;;;17.80;99.90;;;;;;4920020;28;88676;-34
2022/07/07 07:23:31;;;;;;;5.40;1.90;;;18.10;99.90;;;;;;4919836;28;89750;-36
2022/07/07 07:25:56;;;;;;;4.28;1.73;;;18.30;99.90;;;;;;4920582;28;89061;-33
2022/07/07 07:28:22;;;;;;;8.05;1.63;;;18.70;99.90;;;;;;4919555;28;91626;-32
2022/07/07 07:30:48;;;;;;;9.32;2.80;;;19.00;99.90;;;;;;4918980;28;90584;-32
2022/07/07 07:33:13;;;;;;;4.45;1.80;;;19.10;99.90;;;;;;4919344;28;91068;-32
2022/07/07 07:35:39;;;;;;;6.68;1.70;;;19.00;99.90;;;;;;4920225;28;88728;-34
2022/07/07 07:38:04;;;;;;;1.70;1.38;;;18.80;99.90;;;;;;4920045;28;90744;-34
2022/07/07 07:40:30;;;;;;;4.45;1.73;;;18.70;99.90;;;;;;4918710;28;89486;-35
2022/07/07 07:42:56;;;;;;;4.68;1.65;;;18.50;99.90;;;;;;4919491;28;89304;-31
2022/07/07 07:45:21;;;;;;;3.97;1.17;;;18.30;99.90;;;;;;4919078;28;89224;-33
2022/07/07 07:47:47;;;;;;;5.85;1.15;;;18.20;99.90;;;;;;4920406;28;90278;-34
2022/07/07 07:50:18;;;;;;;5.60;2.78;;;18.10;99.90;;;;;;4919509;28;90526;-34
2022/07/07 07:52:46;;;;;;;2.25;1.00;;;17.90;99.90;;;;;;4919225;28;91260;-33
2022/07/07 07:55:14;;;;;;;4.87;1.27;;;17.80;99.90;;;;;;4918835;28;89764;-33
2022/07/07 07:57:40;;;;;;;;;;;17.80;99.90;;;;;;4919362;28;90410;-34
2022/07/07 08:00:08;;;;;;;3.25;1.52;;;18.20;99.90;;;;;;4920778;28;89512;-31
2022/07/07 08:02:34;;;;;;;;;;;18.50;99.90;;;;;;4919654;28;89418;-31
2022/07/07 08:05:00;;;;;;;4.88;1.00;;;18.60;99.90;;;;;;4920206;28;90078;-32
2022/07/07 08:07:25;;;;;;;2.53;0.98;;;18.70;99.90;;;;;;4917613;28;90117;-33
2022/07/07 08:09:51;;;;;;;3.95;1.35;;;18.90;99.90;;;;;;4918395;28;89771;-35
2022/07/07 08:12:16;;;;;;;3.13;0.85;;;19.00;99.90;;;;;;4919279;28;89669;-34
2022/07/07 08:14:42;;;;;;;1.15;0.68;;;18.90;99.90;;;;;;4920036;28;89052;-31
2022/07/07 08:17:08;;;;;;;1.13;0.50;;;18.80;99.90;;;;;;4918854;28;90349;-33
2022/07/07 08:19:33;;;;;;;3.25;0.52;;;18.80;99.90;;;;;;4918446;28;91125;-34
2022/07/07 08:21:59;;;;;;;1.20;0.98;;;18.80;99.90;;;;;;4917268;28;90304;-34
2022/07/07 08:24:25;;;;;;;0.93;0.55;;;19.00;99.90;;;;;;4918826;28;88608;-33
2022/07/07 08:26:52;;;;;;;2.47;1.10;;;19.20;99.90;;;;;;4918539;28;89746;-33
2022/07/07 08:29:17;;;;;;;1.85;0.65;;;19.40;99.90;;;;;;4919046;28;90481;-32
2022/07/07 08:31:43;;;;;;;5.95;1.05;;;19.30;99.90;;;;;;4918877;28;89246;-34
2022/07/07 08:34:09;;;;;;;4.03;0.85;;;19.10;99.90;;;;;;4919201;28;89506;-33
2022/07/07 08:36:34;;;;;;;0.63;0.60;;;18.80;99.90;;;;;;4919609;28;90534;-32
2022/07/07 08:39:00;;;;;;;2.92;0.77;;;18.60;99.90;;;;;;4918433;28;89843;-31
2022/07/07 08:41:26;;;;;;;2.33;0.63;;;18.30;99.90;;;;;;4918524;28;90240;-31
2022/07/07 08:43:52;;;;;;;2.15;0.60;;;18.10;99.90;;;;;;4919177;28;90468;-31
2022/07/07 08:46:18;;;;;;;1.45;0.60;;;18.00;99.90;;;;;;4918584;28;90101;-35
2022/07/07 08:48:44;;;;;;;1.27;0.80;;;17.90;99.90;;;;;;4918855;28;90854;-31
2022/07/07 08:51:11;;;;;;;3.35;0.57;;;17.90;99.90;;;;;;4918474;28;89300;-31
2022/07/07 08:53:37;;;;;;;2.28;0.70;;;18.00;99.90;;;;;;4918807;28;88749;-35
2022/07/07 08:56:06;;;;;;;1.00;0.73;;;18.30;99.90;;;;;;4918252;28;90657;-35
2022/07/07 08:58:32;;;;;;;4.45;1.58;;;18.60;99.90;;;;;;4918618;28;89659;-34
2022/07/07 09:00:58;;;;;;;1.27;0.93;;;18.80;99.90;;;;;;4917557;28;89938;-34
2022/07/07 09:03:26;;;;;;;3.47;1.42;;;18.90;99.90;;;;;;4918306;28;89267;-34
2022/07/07 09:05:53;;;;;;;4.88;1.10;;;18.80;99.90;;;;;;4918255;28;90263;-33
2022/07/07 09:08:20;;;;;;;2.20;1.20;;;18.90;99.90;;;;;;4916768;28;90773;-31
2022/07/07 09:10:46;;;;;;;2.72;0.93;;;19.00;99.90;;;;;;4916976;28;90013;-33
2022/07/07 09:13:28;;;;;;;0.95;0.75;;;19.10;99.90;;;;;;4918494;28;88731;-31
2022/07/07 09:16:12;;;;;;;1.27;1.00;;;19.20;99.90;;;;;;4918352;28;90413;-32
2022/07/07 09:18:41;;;;;;;3.15;0.80;;;19.10;99.90;;;;;;4918708;28;90530;-33
2022/07/07 09:21:31;;;;;;;1.85;0.90;;;19.10;99.90;;;;;;4917707;28;90054;-31
2022/07/07 09:24:00;;;;;;;3.60;0.73;;;19.20;99.90;;;;;;4918894;28;89533;-34
2022/07/07 09:26:43;;;;;;;2.63;1.13;;;19.20;99.90;;;;;;4918595;28;90060;-32
2022/07/07 09:29:13;;;;;;;9.18;2.70;;;19.20;99.90;;;;;;4917917;28;88335;-32
2022/07/07 09:31:51;;;;;;;2.15;1.38;;;19.20;99.90;;;;;;4917969;28;89415;-31
2022/07/07 09:34:18;;;;;;;1.90;1.30;;;19.00;99.90;;;;;;4917427;28;89770;-32
2022/07/07 09:39:51;;;;;;;3.58;1.63;;;19.20;99.90;;;;;;4918437;28;89935;-34
2022/07/07 09:42:18;;;;;;;1.95;1.05;;;19.40;99.90;;;;;;4917393;28;89093;-35
2022/07/07 09:44:50;;;;;;;5.27;1.40;;;19.60;99.90;;;;;;4917892;28;90037;-32
2022/07/07 09:47:16;;;;;;;2.90;1.38;;;19.60;99.90;;;;;;4917959;28;90669;-32
2022/07/07 09:49:45;;;;;;;2.17;1.27;;;19.60;99.90;;;;;;4918163;28;89841;-32
2022/07/07 09:52:15;;;;;;;4.30;1.88;;;19.70;99.90;;;;;;4917839;28;88759;-31
2022/07/07 09:54:48;;;;;;;3.25;2.03;;;19.60;99.90;;;;;;4917873;28;88508;-34
2022/07/07 09:57:14;;;;;;;4.22;2.45;;;19.40;99.90;;;;;;4917224;28;90100;-31
2022/07/07 09:59:41;;;;;;;3.45;1.45;;;19.30;99.90;;;;;;4917618;28;91579;-33
2022/07/07 10:02:14;;;;;;;3.20;1.88;;;19.10;99.90;;;;;;4917810;28;90660;-31
2022/07/07 10:04:43;;;;;;;3.20;1.20;;;18.90;99.90;;;;;;4917307;28;90236;-34
2022/07/07 10:07:10;;;;;;;2.38;1.38;;;18.70;99.90;;;;;;4917854;28;90387;-31
2022/07/07 10:09:37;;;;;;;2.55;1.35;;;18.60;99.90;;;;;;4918123;28;90166;-33
2022/07/07 10:12:04;;;;;;;3.50;1.67;;;18.90;99.90;;;;;;4915745;28;89657;-33
2022/07/07 10:14:35;;;;;;;2.08;1.42;;;19.10;99.90;;;;;;4916590;28;88187;-32
2022/07/07 10:17:01;;;;;;;1.75;1.40;;;19.20;99.90;;;;;;4916193;28;90441;-33
2022/07/07 10:19:27;;;;;;;2.08;1.23;;;19.20;99.90;;;;;;4917752;28;89850;-34
2022/07/07 10:21:58;;;;;;;3.75;1.50;;;19.40;99.90;;;;;;4920939;28;89692;-33
2022/07/07 10:24:28;;;;;;;7.57;1.42;;;19.50;99.90;;;;;;4920988;28;88857;-32
2022/07/07 10:26:59;;;;;;;2.63;1.00;;;19.70;99.90;;;;;;4920752;28;90425;-32
2022/07/07 10:29:41;;;;;;;4.07;1.77;;;19.90;99.90;;;;;;4920944;28;89829;-34
2022/07/07 10:32:15;;;;;;;4.65;1.48;;;20.10;99.90;;;;;;4919831;28;89716;-32
2022/07/07 10:35:14;;;;;;;1.80;1.38;;;20.10;99.90;;;;;;4920849;28;88570;-33
2022/07/07 10:37:58;;;;;;;2.33;1.30;;;19.70;99.90;;;;;;4918208;28;90279;-31
2022/07/07 10:40:26;;;;;;;2.70;2.15;;;19.00;99.90;;;;;;4919816;28;89665;-32
2022/07/07 10:43:10;;;;;;;;;;;18.70;99.90;;;;;;4921255;28;90639;-31
2022/07/07 10:45:45;;;;;;;1.73;1.10;;;18.60;99.90;;;;;;4921810;28;89375;-31
2022/07/07 10:48:43;;;;;;;2.33;1.90;;;18.50;99.90;;;;;;4920322;28;90388;-32
2022/07/07 10:51:22;;;;;;;4.53;2.35;;;18.50;99.90;;;;;;4919161;28;90552;-33
2022/07/07 10:54:06;;;;;;;2.83;1.60;;;18.30;99.90;;;;;;4920001;28;90432;-31
2022/07/07 10:56:51;;;;;;;40.03;9.35;;;18.30;99.90;;;;;;4920666;28;89397;-35
2022/07/07 10:59:20;;;;;;;3.03;2.30;;;18.20;99.90;;;;;;4919423;28;89623;-30
2022/07/07 11:02:06;;;;;;;5.43;1.50;;;18.10;99.90;;;;;;4919914;28;89950;-32
2022/07/07 11:04:44;;;;;;;31.20;3.80;;;18.10;99.90;;;;;;4919081;28;90382;-31
2022/07/07 11:07:18;;;;;;;2.35;1.52;;;18.00;99.90;;;;;;4919783;28;88212;-31
2022/07/07 11:10:00;;;;;;;6.65;4.20;;;17.90;99.90;;;;;;4920436;28;89829;-32
2022/07/07 11:12:51;;;;;;;8.73;2.75;;;17.80;99.90;;;;;;4918841;28;89774;-34
2022/07/07 11:15:20;;;;;;;3.28;1.58;;;17.70;99.90;;;;;;4919345;28;89454;-34
2022/07/07 11:17:53;;;;;;;9.18;2.65;;;17.80;99.90;;;;;;4919774;28;89954;-31
2022/07/07 11:20:25;;;;;;;6.30;2.92;;;17.80;99.90;;;;;;4919178;28;90256;-33
2022/07/07 11:22:54;;;;;;;5.47;1.73;;;18.00;99.90;;;;;;4920233;28;90381;-33
2022/07/07 11:25:21;;;;;;;4.82;2.50;;;17.90;99.90;;;;;;4919414;28;89924;-31
2022/07/07 11:27:49;;;;;;;6.53;1.67;;;17.90;99.90;;;;;;4919976;28;90060;-31
2022/07/07 11:30:16;;;;;;;5.70;2.85;;;17.80;99.90;;;;;;4919433;28;89775;-34
2022/07/07 11:32:43;;;;;;;6.53;3.17;;;17.80;99.90;;;;;;4918859;28;90463;-33
2022/07/07 11:35:11;;;;;;;9.70;3.47;;;17.80;99.90;;;;;;4919555;28;89346;-31
2022/07/07 11:37:42;;;;;;;8.60;3.28;;;17.70;99.90;;;;;;4919320;28;89718;-33
2022/07/07 11:40:13;;;;;;;5.70;2.85;;;17.70;99.90;;;;;;4919727;28;89302;-33
2022/07/07 11:42:40;;;;;;;12.50;3.47;;;17.90;99.90;;;;;;4918808;28;90290;-33
2022/07/07 11:45:20;;;;;;;10.20;2.90;;;17.90;99.90;;;;;;4919482;28;92048;-33
2022/07/07 11:47:46;;;;;;;11.00;4.70;;;17.80;99.90;;;;;;4919959;28;89683;-32
2022/07/07 11:50:12;;;;;;;10.70;3.22;;;17.80;99.90;;;;;;4919799;28;90641;-34
2022/07/07 11:52:37;;;;;;;8.25;3.33;;;17.90;99.90;;;;;;4919404;28;89685;-31
2022/07/07 11:55:04;;;;;;;19.10;3.80;;;18.00;99.90;;;;;;4918747;28;90346;-33
2022/07/07 11:57:37;;;;;;;6.30;3.45;;;18.10;99.90;;;;;;4918960;28;88446;-31
2022/07/07 12:00:38;;;;;;;8.25;2.90;;;18.20;99.90;;;;;;4919358;28;89671;-31
2022/07/07 12:03:06;;;;;;;9.65;3.95;;;18.10;99.90;;;;;;4953371;23;90233;-31
2022/07/07 12:05:45;;;;;;;12.18;4.13;;;18.10;99.90;;;;;;4919173;28;89503;-35
2022/07/07 12:08:12;;;;;;;7.68;2.63;;;18.00;99.90;;;;;;4918942;28;90622;-31
2022/07/07 12:10:39;;;;;;;7.93;3.80;;;18.00;99.90;;;;;;4918112;28;90511;-34
2022/07/07 12:13:10;;;;;;;12.77;3.45;;;18.10;99.90;;;;;;4917839;28;90588;-34
2022/07/07 12:15:42;;;;;;;9.82;3.20;;;18.00;99.90;;;;;;4896830;28;89693;-34
2022/07/07 12:18:09;;;;;;;8.35;3.33;;;18.00;99.90;;;;;;4899340;28;88860;-34
2022/07/07 12:20:36;;;;;;;5.35;2.50;;;18.10;99.90;;;;;;4899090;28;89974;-32
2022/07/07 12:23:04;;;;;;;7.10;3.70;;;18.00;99.90;;;;;;4899116;28;89865;-34
2022/07/07 12:25:33;;;;;;;11.98;3.25;;;18.10;99.90;;;;;;4899444;28;89885;-34
2022/07/07 12:28:07;;;;;;;6.80;2.33;;;18.10;99.90;;;;;;4899985;28;89929;-34
2022/07/07 12:30:54;;;;;;;5.32;1.80;;;18.20;99.90;;;;;;4898568;28;90282;-31
2022/07/07 12:33:35;;;;;;;6.57;2.25;;;18.30;99.90;;;;;;4897995;28;91454;-32
2022/07/07 12:36:18;;;;;;;6.68;2.40;;;18.40;99.90;;;;;;4898853;28;90378;-35
2022/07/07 12:38:49;;;;;;;5.15;2.70;;;18.40;99.90;;;;;;4899171;28;89170;-32
2022/07/07 12:41:26;;;;;;;7.20;2.08;;;18.40;99.90;;;;;;4898832;28;90254;-34
2022/07/07 12:43:54;;;;;;;6.75;2.20;;;18.30;99.90;;;;;;4898985;28;89723;-32
2022/07/07 12:46:20;;;;;;;7.57;2.28;;;18.40;99.90;;;;;;4899210;28;89319;-32
2022/07/07 12:48:50;;;;;;;6.18;2.30;;;18.50;99.90;;;;;;4898835;28;89168;-33
2022/07/07 12:51:22;;;;;;;8.07;2.72;;;18.50;99.90;;;;;;4916576;28;90419;-32